createdAt,value
2022-11-01T00:00:26.394Z,13.47
2022-11-01T00:03:28.007Z,13.07
2022-11-01T00:06:29.692Z,7.93
2022-11-01T00:09:31.393Z,9.13
2022-11-01T00:12:33.035Z,9.80
2022-11-01T00:15:34.647Z,8.17
2022-11-01T00:18:36.241Z,8.90
2022-11-01T00:21:38.358Z,10.07
2022-11-01T00:24:39.958Z,9.43
2022-11-01T00:27:41.471Z,12.53
2022-11-01T00:30:43.124Z,9.63
2022-11-01T00:33:45.069Z,8.67
2022-11-01T00:36:46.739Z,12.03
2022-11-01T00:39:48.368Z,6.87
2022-11-01T00:42:49.931Z,9.90
2022-11-01T00:45:51.624Z,10.60
2022-11-01T00:48:53.258Z,9.90
2022-11-01T00:51:54.940Z,12.13
2022-11-01T00:54:56.616Z,7.70
2022-11-01T00:57:58.252Z,11.67
2022-11-01T01:01:00.288Z,9.63
2022-11-01T01:04:01.871Z,9.87
2022-11-01T01:07:03.437Z,8.73
2022-11-01T01:10:05.925Z,10.10
2022-11-01T01:13:07.538Z,11.57
2022-11-01T01:16:10.078Z,7.53
2022-11-01T01:19:11.623Z,15.03
2022-11-01T01:22:13.327Z,8.83
2022-11-01T01:25:15.376Z,7.03
2022-11-01T01:28:16.941Z,9.67
2022-11-01T01:31:18.580Z,8.43
2022-11-01T01:34:20.318Z,8.00
2022-11-01T01:37:21.852Z,10.63
2022-11-01T01:40:23.456Z,10.03
2022-11-01T01:43:40.045Z,15.17
2022-11-01T01:46:41.656Z,8.63
2022-11-01T01:49:44.547Z,8.97
2022-11-01T01:52:59.331Z,8.97
2022-11-01T01:56:03.251Z,10.77
2022-11-01T01:59:09.129Z,8.47
2022-11-01T02:02:10.991Z,9.53
2022-11-01T02:05:19.601Z,13.30
2022-11-01T02:08:27.802Z,11.63
2022-11-01T02:11:29.493Z,13.67
2022-11-01T02:14:31.393Z,9.73
2022-11-01T02:17:56.319Z,10.13
2022-11-01T02:21:16.728Z,9.67
2022-11-01T02:24:27.564Z,13.30
2022-11-01T02:27:32.856Z,14.67
2022-11-01T02:30:45.873Z,10.73
2022-11-01T02:33:49.683Z,12.13
2022-11-01T02:37:02.853Z,10.83
2022-11-01T02:40:09.939Z,9.63
2022-11-01T02:43:22.146Z,13.73
2022-11-01T02:46:42.968Z,11.23
2022-11-01T02:49:46.256Z,11.43
2022-11-01T02:52:48.114Z,11.07
2022-11-01T02:55:53.364Z,14.90
2022-11-01T02:58:55.455Z,14.57
2022-11-01T03:02:10.194Z,11.20
2022-11-01T03:05:18.847Z,9.00
2022-11-01T03:08:22.890Z,11.87
2022-11-01T03:11:27.382Z,9.73
2022-11-01T03:14:28.907Z,14.00
2022-11-01T03:17:38.220Z,12.57
2022-11-01T03:20:49.825Z,10.40
2022-11-01T03:24:17.798Z,9.57
2022-11-01T03:27:19.382Z,9.57
2022-11-01T03:30:21.077Z,10.70
2022-11-01T03:33:24.677Z,9.03
2022-11-01T03:36:31.059Z,11.37
2022-11-01T03:39:39.980Z,13.43
2022-11-01T03:42:45.632Z,9.73
2022-11-01T03:45:48.550Z,11.90
2022-11-01T03:48:50.188Z,12.33
2022-11-01T03:51:51.720Z,17.17
2022-11-01T03:54:53.336Z,14.40
2022-11-01T03:57:56.916Z,16.43
2022-11-01T04:00:58.500Z,15.77
2022-11-01T04:04:00.136Z,15.03
2022-11-01T04:07:01.849Z,19.07
2022-11-01T04:10:03.673Z,10.10
2022-11-01T04:13:05.686Z,11.93
2022-11-01T04:16:27.715Z,12.27
2022-11-01T04:19:48.038Z,10.57
2022-11-01T04:22:49.750Z,14.90
2022-11-01T04:25:51.374Z,12.23
2022-11-01T04:28:59.035Z,13.03
2022-11-01T04:32:00.607Z,9.80
2022-11-01T04:35:02.217Z,15.23
2022-11-01T04:38:04.395Z,11.23
2022-11-01T04:41:06.141Z,11.93
2022-11-01T04:44:07.943Z,11.50
2022-11-01T04:47:09.549Z,16.13
2022-11-01T04:50:11.190Z,11.27
2022-11-01T04:53:13.071Z,10.33
2022-11-01T04:56:14.784Z,7.97
2022-11-01T04:59:16.334Z,14.23
2022-11-01T05:02:18.322Z,9.97
2022-11-01T05:05:20.009Z,12.10
2022-11-01T05:08:21.665Z,15.47
2022-11-01T05:11:25.754Z,16.07
2022-11-01T05:14:27.683Z,12.30
2022-11-01T05:17:29.412Z,15.47
2022-11-01T05:20:31.288Z,14.93
2022-11-01T05:23:32.903Z,17.77
2022-11-01T05:26:34.551Z,15.37
2022-11-01T05:29:36.177Z,18.47
2022-11-01T05:32:38.072Z,14.10
2022-11-01T05:35:39.989Z,16.93
2022-11-01T05:38:41.629Z,12.30
2022-11-01T05:41:46.363Z,11.77
2022-11-01T05:44:48.062Z,13.53
2022-11-01T05:47:49.637Z,14.57
2022-11-01T05:50:51.281Z,24.17
2022-11-01T05:53:52.838Z,18.90
2022-11-01T05:56:54.676Z,20.23
2022-11-01T05:59:56.257Z,15.57
2022-11-01T06:02:58.322Z,18.73
2022-11-01T06:06:00.168Z,11.93
2022-11-01T06:09:03.064Z,11.57
2022-11-01T06:12:05.189Z,16.63
2022-11-01T06:15:07.052Z,11.80
2022-11-01T06:18:08.818Z,15.07
2022-11-01T06:21:10.398Z,17.83
2022-11-01T06:24:12.167Z,15.70
2022-11-01T06:27:13.783Z,22.10
2022-11-01T06:30:15.443Z,28.47
2022-11-01T06:33:17.075Z,20.23
2022-11-01T06:36:18.640Z,26.13
2022-11-01T06:39:20.220Z,21.83
2022-11-01T06:42:21.884Z,22.53
2022-11-01T06:45:23.511Z,22.13
2022-11-01T06:48:25.079Z,15.20
2022-11-01T06:51:27.015Z,15.53
2022-11-01T06:54:28.620Z,12.67
2022-11-01T06:57:30.193Z,13.10
2022-11-01T07:00:31.966Z,23.07
2022-11-01T07:03:33.656Z,13.70
2022-11-01T07:06:35.339Z,14.40
2022-11-01T07:09:36.952Z,15.13
2022-11-01T07:12:38.593Z,11.80
2022-11-01T07:15:40.316Z,12.73
2022-11-01T07:18:42.102Z,15.50
2022-11-01T07:21:43.792Z,15.90
2022-11-01T07:24:45.427Z,16.87
2022-11-01T07:27:47.055Z,16.43
2022-11-01T07:30:49.183Z,18.87
2022-11-01T07:33:50.859Z,12.17
2022-11-01T07:36:52.796Z,14.10
2022-11-01T07:39:54.345Z,22.38
2022-11-01T07:42:57.013Z,22.58
2022-11-01T07:45:59.661Z,22.52
2022-11-01T07:49:01.425Z,18.98
2022-11-01T07:52:04.274Z,14.20
2022-11-01T07:55:06.181Z,19.77
2022-11-01T07:58:08.218Z,16.45
2022-11-01T08:01:10.600Z,21.42
2022-11-01T08:04:12.578Z,36.38
2022-11-01T08:07:14.213Z,49.05
2022-11-01T08:10:15.825Z,50.97
2022-11-01T08:13:22.177Z,27.25
2022-11-01T08:16:23.724Z,10.85
2022-11-01T08:19:25.371Z,12.05
2022-11-01T08:22:27.006Z,13.32
2022-11-01T08:25:28.565Z,22.90
2022-11-01T08:28:30.510Z,18.70
2022-11-01T08:31:32.207Z,80.70
2022-11-01T08:34:33.906Z,24.83
2022-11-01T08:37:35.496Z,17.27
2022-11-01T08:40:37.143Z,12.13
2022-11-01T08:43:40.620Z,15.68
2022-11-01T08:46:43.511Z,10.95
2022-11-01T08:49:45.749Z,14.20
2022-11-01T08:52:47.397Z,23.48
2022-11-01T08:55:54.035Z,17.73
2022-11-01T08:58:55.688Z,11.48
2022-11-01T09:01:57.523Z,9.90
2022-11-01T09:05:02.760Z,14.63
2022-11-01T09:08:04.946Z,11.35
2022-11-01T09:11:07.008Z,8.10
2022-11-01T09:14:08.962Z,10.27
2022-11-01T09:17:10.541Z,12.25
2022-11-01T09:20:12.158Z,13.55
2022-11-01T09:23:13.938Z,10.85
2022-11-01T09:26:15.541Z,12.98
2022-11-01T09:29:18.978Z,11.35
2022-11-01T09:32:21.272Z,9.35
2022-11-01T09:35:22.865Z,10.93
2022-11-01T09:38:24.558Z,9.13
2022-11-01T09:41:26.149Z,14.20
2022-11-01T09:44:33.954Z,8.65
2022-11-01T09:47:35.692Z,8.83
2022-11-01T09:50:38.070Z,9.43
2022-11-01T09:53:39.772Z,9.73
2022-11-01T09:56:43.158Z,12.43
2022-11-01T09:59:49.625Z,10.57
2022-11-01T10:02:51.290Z,12.27
2022-11-01T10:06:13.626Z,15.13
2022-11-01T10:09:35.588Z,13.10
2022-11-01T10:12:37.227Z,9.00
2022-11-01T10:15:39.058Z,12.37
2022-11-01T10:18:49.747Z,12.73
2022-11-01T10:21:54.515Z,14.03
2022-11-01T10:24:58.616Z,8.67
2022-11-01T10:28:09.269Z,13.03
2022-11-01T10:31:14.767Z,11.27
2022-11-01T10:34:16.309Z,10.87
2022-11-01T10:37:20.685Z,7.80
2022-11-01T10:40:30.260Z,12.57
2022-11-01T10:43:34.492Z,7.70
2022-11-01T10:46:41.102Z,10.63
2022-11-01T10:50:04.908Z,8.73
2022-11-01T10:53:11.609Z,10.13
2022-11-01T10:56:28.322Z,8.57
2022-11-01T10:59:41.183Z,14.17
2022-11-01T11:02:47.939Z,8.40
2022-11-01T11:05:50.769Z,14.47
2022-11-01T11:08:53.731Z,9.57
2022-11-01T11:11:56.780Z,7.17
2022-11-01T11:15:03.874Z,7.57
2022-11-01T11:18:08.942Z,9.00
2022-11-01T11:21:12.101Z,12.50
2022-11-01T11:24:20.763Z,13.00
2022-11-01T11:27:23.944Z,8.33
2022-11-01T11:30:30.230Z,10.53
2022-11-01T11:33:32.012Z,8.33
2022-11-01T11:36:40.925Z,16.17
2022-11-01T11:39:58.868Z,9.90
2022-11-01T11:43:18.705Z,9.67
2022-11-01T11:46:26.448Z,8.40
2022-11-01T11:49:28.101Z,10.40
2022-11-01T11:52:38.401Z,9.87
2022-11-01T11:55:42.741Z,8.50
2022-11-01T11:58:50.102Z,10.90
2022-11-01T12:02:00.007Z,15.53
2022-11-01T12:05:03.964Z,11.00
2022-11-01T12:08:05.868Z,10.63
2022-11-01T12:11:07.442Z,13.83
2022-11-01T12:14:24.708Z,11.03
2022-11-01T12:17:43.370Z,12.23
2022-11-01T12:20:51.912Z,10.80
2022-11-01T12:23:56.512Z,12.43
2022-11-01T12:27:02.314Z,9.47
2022-11-01T12:30:12.532Z,14.87
2022-11-01T12:33:25.237Z,10.67
2022-11-01T12:36:30.693Z,14.70
2022-11-01T12:39:41.102Z,8.20
2022-11-01T12:42:48.546Z,14.73
2022-11-01T12:46:12.767Z,11.73
2022-11-01T12:49:33.091Z,17.80
2022-11-01T12:52:53.052Z,15.70
2022-11-01T12:55:56.766Z,13.47
2022-11-01T12:58:58.494Z,9.50
2022-11-01T13:02:15.527Z,7.60
2022-11-01T13:05:22.304Z,13.43
2022-11-01T13:08:29.712Z,9.50
2022-11-01T13:11:50.050Z,10.63
2022-11-01T13:15:03.645Z,10.93
2022-11-01T13:18:23.547Z,12.53
2022-11-01T13:21:43.908Z,16.67
2022-11-01T13:25:00.772Z,11.63
2022-11-01T13:28:11.674Z,13.53
2022-11-01T13:31:26.488Z,15.23
2022-11-01T13:34:36.095Z,10.47
2022-11-01T13:37:37.695Z,9.87
2022-11-01T13:40:50.540Z,10.03
2022-11-01T13:43:58.596Z,12.60
2022-11-01T13:47:03.235Z,14.67
2022-11-01T13:50:11.175Z,12.40
2022-11-01T13:53:12.746Z,17.33
2022-11-01T13:56:26.539Z,13.90
2022-11-01T13:59:37.284Z,16.73
2022-11-01T14:02:47.858Z,14.10
2022-11-01T14:06:07.931Z,14.33
2022-11-01T14:09:25.824Z,10.90
2022-11-01T14:12:36.556Z,15.47
2022-11-01T14:15:59.500Z,11.33
2022-11-01T14:19:04.266Z,11.30
2022-11-01T14:22:25.900Z,15.33
2022-11-01T14:25:30.560Z,9.83
2022-11-01T14:28:32.236Z,12.80
2022-11-01T14:31:35.121Z,28.00
2022-11-01T14:34:37.262Z,12.37
2022-11-01T14:37:47.714Z,13.87
2022-11-01T14:40:51.987Z,16.13
2022-11-01T14:43:54.749Z,15.40
2022-11-01T14:46:58.705Z,11.57
2022-11-01T14:50:02.845Z,22.27
2022-11-01T14:53:11.057Z,18.93
2022-11-01T14:56:12.601Z,24.70
2022-11-01T14:59:21.767Z,22.57
2022-11-01T15:02:25.484Z,22.07
2022-11-01T15:05:27.497Z,27.23
2022-11-01T15:08:36.248Z,23.43
2022-11-01T15:11:37.915Z,24.07
2022-11-01T15:14:43.998Z,18.53
2022-11-01T15:18:12.015Z,23.53
2022-11-01T15:24:22.131Z,29.13
2022-11-01T15:27:25.691Z,31.63
2022-11-01T15:30:28.875Z,32.77
2022-11-01T15:33:36.385Z,37.40
2022-11-01T15:36:39.345Z,36.83
2022-11-01T15:39:40.944Z,29.30
2022-11-01T15:42:48.931Z,27.67
2022-11-01T15:45:53.636Z,31.43
2022-11-01T15:48:58.184Z,29.00
2022-11-01T15:52:20.035Z,35.63
2022-11-01T15:55:35.317Z,28.50
2022-11-01T15:58:46.860Z,33.67
2022-11-01T16:01:49.002Z,37.70
2022-11-01T16:04:50.883Z,33.50
2022-11-01T16:07:52.724Z,38.17
2022-11-01T16:10:54.587Z,35.87
2022-11-01T16:14:00.022Z,32.83
2022-11-01T16:17:02.937Z,41.80
2022-11-01T16:20:24.638Z,37.33
2022-11-01T16:23:28.486Z,35.33
2022-11-01T16:26:30.495Z,35.10
2022-11-01T16:29:39.123Z,39.57
2022-11-01T16:32:40.799Z,42.90
2022-11-01T16:35:42.620Z,30.40
2022-11-01T16:38:55.932Z,31.80
2022-11-01T16:41:58.256Z,24.83
2022-11-01T16:44:59.874Z,23.87
2022-11-01T16:48:01.889Z,22.83
2022-11-01T16:51:06.024Z,20.50
2022-11-01T16:54:11.541Z,21.53
2022-11-01T16:57:19.356Z,24.43
2022-11-01T17:00:20.918Z,43.80
2022-11-01T17:03:24.394Z,35.50
2022-11-01T17:06:26.668Z,31.70
2022-11-01T17:09:32.654Z,41.53
2022-11-01T17:12:34.733Z,20.77
2022-11-01T17:15:40.643Z,27.53
2022-11-01T17:18:51.593Z,25.00
2022-11-01T17:21:53.922Z,31.87
2022-11-01T17:24:55.919Z,33.17
2022-11-01T17:27:57.672Z,31.60
2022-11-01T17:30:59.478Z,22.90
2022-11-01T17:34:01.292Z,30.17
2022-11-01T17:37:03.559Z,24.77
2022-11-01T17:40:15.351Z,24.30
2022-11-01T17:43:17.728Z,28.10
2022-11-01T17:46:22.629Z,25.97
2022-11-01T17:49:29.416Z,27.23
2022-11-01T17:52:34.403Z,25.10
2022-11-01T17:55:37.226Z,27.43
2022-11-01T17:58:39.267Z,24.87
2022-11-01T18:01:42.870Z,24.67
2022-11-01T18:04:45.356Z,21.87
2022-11-01T18:07:50.315Z,17.73
2022-11-01T18:11:05.474Z,16.67
2022-11-01T18:14:13.539Z,14.93
2022-11-01T18:17:30.620Z,11.77
2022-11-01T18:20:36.386Z,20.23
2022-11-01T18:23:40.286Z,15.70
2022-11-01T18:26:44.993Z,18.13
2022-11-01T18:29:50.115Z,16.10
2022-11-01T18:32:58.568Z,16.00
2022-11-01T18:36:09.341Z,15.50
2022-11-01T18:39:23.460Z,17.83
2022-11-01T18:42:25.713Z,16.43
2022-11-01T18:45:44.229Z,16.07
2022-11-01T18:49:01.240Z,13.70
2022-11-01T18:52:12.227Z,18.97
2022-11-01T18:55:16.832Z,17.90
2022-11-01T18:58:28.944Z,14.30
2022-11-01T19:01:34.829Z,14.87
2022-11-01T19:04:37.712Z,19.37
2022-11-01T19:08:04.829Z,12.17
2022-11-01T19:11:02.485Z,14.13
2022-11-01T19:14:06.233Z,17.57
2022-11-01T19:17:18.235Z,18.40
2022-11-01T19:20:19.962Z,15.90
2022-11-01T19:23:22.731Z,19.87
2022-11-01T19:26:24.322Z,22.03
2022-11-01T19:29:31.969Z,19.77
2022-11-01T19:32:34.338Z,23.37
2022-11-01T19:35:37.339Z,16.57
2022-11-01T19:38:43.330Z,14.90
2022-11-01T19:41:45.659Z,13.00
2022-11-01T19:44:47.377Z,18.07
2022-11-01T19:47:50.408Z,22.77
2022-11-01T19:50:52.183Z,15.70
2022-11-01T19:53:54.381Z,16.60
2022-11-01T19:56:58.994Z,17.23
2022-11-01T20:00:20.094Z,16.23
2022-11-01T20:03:26.181Z,13.93
2022-11-01T20:06:29.009Z,14.27
2022-11-01T20:09:35.509Z,12.43
2022-11-01T20:12:40.952Z,15.53
2022-11-01T20:15:45.323Z,14.97
2022-11-01T20:18:47.049Z,15.17
2022-11-01T20:21:48.649Z,11.83
2022-11-01T20:24:50.395Z,19.33
2022-11-01T20:27:52.046Z,18.77
2022-11-01T20:30:53.702Z,13.53
2022-11-01T20:33:55.381Z,15.60
2022-11-01T20:37:22.854Z,17.13
2022-11-01T20:40:18.757Z,21.67
2022-11-01T20:43:20.468Z,21.57
2022-11-01T20:46:22.118Z,16.23
2022-11-01T20:49:23.728Z,14.77
2022-11-01T20:52:40.640Z,15.20
2022-11-01T20:55:42.863Z,17.87
2022-11-01T20:58:44.652Z,12.97
2022-11-01T21:01:46.370Z,19.63
2022-11-01T21:04:51.373Z,12.83
2022-11-01T21:07:53.855Z,24.13
2022-11-01T21:10:56.651Z,17.47
2022-11-01T21:13:59.076Z,22.37
2022-11-01T21:17:01.587Z,20.40
2022-11-01T21:20:10.985Z,17.63
2022-11-01T21:23:18.541Z,15.00
2022-11-01T21:26:21.531Z,15.47
2022-11-01T21:29:26.424Z,20.00
2022-11-01T21:32:34.933Z,17.83
2022-11-01T21:35:38.218Z,13.87
2022-11-01T21:38:42.983Z,14.20
2022-11-01T21:41:47.609Z,18.00
2022-11-01T21:44:49.329Z,15.70
2022-11-01T21:47:51.497Z,15.27
2022-11-01T21:50:53.062Z,12.60
2022-11-01T21:53:55.969Z,18.20
2022-11-01T21:56:59.537Z,18.33
2022-11-01T22:00:01.195Z,12.83
2022-11-01T22:03:03.240Z,13.43
2022-11-01T22:06:05.121Z,17.20
2022-11-01T22:09:07.809Z,13.60
2022-11-01T22:12:09.368Z,16.47
2022-11-01T22:15:10.941Z,16.13
2022-11-01T22:18:12.641Z,17.83
2022-11-01T22:21:14.381Z,15.57
2022-11-01T22:24:16.011Z,14.07
2022-11-01T22:27:17.594Z,12.97
2022-11-01T22:30:19.171Z,17.00
2022-11-01T22:33:20.868Z,14.10
2022-11-01T22:36:24.602Z,10.57
2022-11-01T22:39:26.804Z,13.10
2022-11-01T22:42:28.406Z,11.00
2022-11-01T22:45:30.039Z,13.17
2022-11-01T22:48:31.713Z,13.00
2022-11-01T22:51:41.814Z,12.77
2022-11-01T22:54:47.447Z,12.43
2022-11-01T22:57:57.685Z,14.10
2022-11-01T23:01:00.416Z,11.40
2022-11-01T23:04:02.129Z,11.27
2022-11-01T23:07:06.304Z,15.33
2022-11-01T23:10:20.049Z,14.27
2022-11-01T23:13:50.458Z,13.47
2022-11-01T23:16:52.011Z,13.43
2022-11-01T23:19:55.900Z,17.53
2022-11-01T23:22:58.944Z,17.27
2022-11-01T23:26:02.295Z,14.97
2022-11-01T23:29:03.862Z,15.57
2022-11-01T23:32:05.457Z,18.03
2022-11-01T23:35:19.296Z,16.40
2022-11-01T23:38:35.337Z,13.40
2022-11-01T23:41:41.696Z,14.10
2022-11-01T23:44:43.617Z,17.87
2022-11-01T23:47:45.282Z,16.57
2022-11-01T23:50:47.137Z,16.43
2022-11-01T23:53:50.801Z,16.27
2022-11-01T23:56:53.877Z,11.60
2022-11-01T23:59:56.047Z,11.80
